TAM2446 SAZS-SAME
Flight info
| Callsign | TAM2446 |
|---|---|
| Flight time | N/A |
| Altitude | 37000 |
| Route | CHATO1C CHATO UW44 ESITO ESITO1Q |
| Aircraft | A320/M-SDE3FGHIRWY/LB1 |
Departure
| Time | 2026-05-03 21:36 |
|---|---|
| Airport | Teniente Luis Candelaria International Airport (SAZS) |
Arrival
| Time | N/A |
|---|---|
| Airport | Governor Francisco Gabrielli International Airport (SAME) |
| Time | Latitude | Longitude | Altitude | Speed | Heading |
|---|---|---|---|---|---|
| 2026-05-03 21:17 | -41.14716 | -71.16106 | 2749 ft | 0 kts | 67° |
| 2026-05-03 21:19 | -41.14716 | -71.16107 | 2749 ft | 0 kts | 67° |
| 2026-05-03 21:26 | -41.14723 | -71.16122 | 2750 ft | 2 kts | 43° |
| 2026-05-03 21:26 | -41.14734 | -71.16136 | 2750 ft | 2 kts | 51° |
| 2026-05-03 21:27 | -41.14741 | -71.16154 | 2751 ft | 2 kts | 84° |
| 2026-05-03 21:27 | -41.14742 | -71.16178 | 2750 ft | 2 kts | 77° |
| 2026-05-03 21:27 | -41.14749 | -71.16193 | 2750 ft | 4 kts | 32° |
| 2026-05-03 21:27 | -41.14766 | -71.16203 | 2751 ft | 4 kts | 24° |
| 2026-05-03 21:28 | -41.14782 | -71.16212 | 2751 ft | 2 kts | 50° |
| 2026-05-03 21:28 | -41.14786 | -71.16226 | 2753 ft | 2 kts | 123° |
| 2026-05-03 21:28 | -41.14785 | -71.16230 | 2754 ft | 4 kts | 129° |
| 2026-05-03 21:28 | -41.14797 | -71.16206 | 2750 ft | 2 kts | 120° |
| 2026-05-03 21:29 | -41.14802 | -71.16192 | 2750 ft | 1 kts | 116° |
| 2026-05-03 21:29 | -41.14806 | -71.16183 | 2750 ft | 0 kts | 116° |
| 2026-05-03 21:30 | -41.14805 | -71.16183 | 2749 ft | 0 kts | 116° |
| 2026-05-03 21:31 | -41.14806 | -71.16182 | 2749 ft | 1 kts | 116° |
| 2026-05-03 21:31 | -41.14814 | -71.16160 | 2751 ft | 4 kts | 116° |
| 2026-05-03 21:31 | -41.14832 | -71.16110 | 2749 ft | 8 kts | 114° |
| 2026-05-03 21:31 | -41.14858 | -71.16035 | 2751 ft | 10 kts | 115° |
| 2026-05-03 21:32 | -41.14892 | -71.15937 | 2749 ft | 13 kts | 115° |
| 2026-05-03 21:32 | -41.14934 | -71.15818 | 2749 ft | 15 kts | 115° |
| 2026-05-03 21:32 | -41.14983 | -71.15680 | 2749 ft | 18 kts | 114° |
| 2026-05-03 21:32 | -41.15038 | -71.15523 | 2751 ft | 20 kts | 115° |
| 2026-05-03 21:33 | -41.15098 | -71.15347 | 2751 ft | 22 kts | 115° |
| 2026-05-03 21:33 | -41.15165 | -71.15159 | 2749 ft | 23 kts | 115° |
| 2026-05-03 21:33 | -41.15234 | -71.14958 | 2749 ft | 25 kts | 115° |
| 2026-05-03 21:33 | -41.15308 | -71.14747 | 2749 ft | 26 kts | 115° |
| 2026-05-03 21:34 | -41.15385 | -71.14526 | 2751 ft | 19 kts | 114° |
| 2026-05-03 21:34 | -41.15422 | -71.14466 | 2749 ft | 6 kts | 161° |
| 2026-05-03 21:34 | -41.15449 | -71.14472 | 2749 ft | 2 kts | 204° |
| 2026-05-03 21:34 | -41.15469 | -71.14484 | 2749 ft | 4 kts | 204° |
| 2026-05-03 21:35 | -41.15501 | -71.14504 | 2749 ft | 6 kts | 204° |
| 2026-05-03 21:35 | -41.15535 | -71.14535 | 2749 ft | 5 kts | 242° |
| 2026-05-03 21:35 | -41.15497 | -71.14659 | 2751 ft | 39 kts | 295° |
| 2026-05-03 21:35 | -41.15296 | -71.15245 | 2754 ft | 97 kts | 295° |
| 2026-05-03 21:36 | -41.14950 | -71.16245 | 2796 ft | 136 kts | 291° |
| 2026-05-03 21:36 | -41.14569 | -71.17379 | 3422 ft | 134 kts | 291° |
| 2026-05-03 21:36 | -41.14178 | -71.18495 | 4091 ft | 135 kts | 294° |
| 2026-05-03 21:36 | -41.13762 | -71.19668 | 4475 ft | 150 kts | 293° |
| 2026-05-03 21:37 | -41.13292 | -71.20997 | 4719 ft | 172 kts | 292° |
| 2026-05-03 21:37 | -41.12766 | -71.22550 | 4952 ft | 199 kts | 291° |
| 2026-05-03 21:37 | -41.12195 | -71.24306 | 5574 ft | 211 kts | 291° |
| 2026-05-03 21:37 | -41.11609 | -71.26079 | 6563 ft | 209 kts | 292° |
| 2026-05-03 21:38 | -41.11020 | -71.27841 | 7478 ft | 210 kts | 292° |
| 2026-05-03 21:38 | -41.10424 | -71.29618 | 8346 ft | 212 kts | 292° |
| 2026-05-03 21:38 | -41.09822 | -71.31408 | 9208 ft | 214 kts | 292° |
| 2026-05-03 21:38 | -41.09207 | -71.33219 | 10026 ft | 216 kts | 291° |
| 2026-05-03 21:39 | -41.08585 | -71.35045 | 10775 ft | 219 kts | 292° |
| 2026-05-03 21:39 | -41.07688 | -71.36744 | 11327 ft | 240 kts | 312° |
| 2026-05-03 21:39 | -41.06064 | -71.37764 | 11556 ft | 286 kts | 342° |
| 2026-05-03 21:39 | -41.03937 | -71.37517 | 11739 ft | 331 kts | 7° |
| 2026-05-03 21:40 | -41.01736 | -71.36280 | 12219 ft | 354 kts | 20° |
| 2026-05-03 21:40 | -40.99591 | -71.34557 | 12811 ft | 365 kts | 25° |
| 2026-05-03 21:40 | -40.97473 | -71.32643 | 13425 ft | 373 kts | 27° |
| 2026-05-03 21:40 | -40.95317 | -71.30683 | 14034 ft | 378 kts | 26° |
| 2026-05-03 21:41 | -40.93105 | -71.28764 | 14557 ft | 383 kts | 24° |
| 2026-05-03 21:41 | -40.90832 | -71.26907 | 15151 ft | 385 kts | 23° |
| 2026-05-03 21:41 | -40.88517 | -71.25105 | 15773 ft | 387 kts | 22° |
| 2026-05-03 21:41 | -40.86164 | -71.23326 | 16399 ft | 391 kts | 21° |
| 2026-05-03 21:42 | -40.83787 | -71.21552 | 17022 ft | 395 kts | 21° |
| 2026-05-03 21:42 | -40.81383 | -71.19763 | 17641 ft | 399 kts | 21° |
| 2026-05-03 21:42 | -40.78951 | -71.17942 | 18240 ft | 404 kts | 22° |
| 2026-05-03 21:42 | -40.76498 | -71.16094 | 18778 ft | 408 kts | 22° |
| 2026-05-03 21:43 | -40.74026 | -71.14222 | 19351 ft | 412 kts | 22° |
| 2026-05-03 21:43 | -40.71532 | -71.12328 | 19923 ft | 416 kts | 22° |
| 2026-05-03 21:43 | -40.69052 | -71.10444 | 20451 ft | 419 kts | 23° |
| 2026-05-03 21:43 | -40.66507 | -71.08513 | 20936 ft | 423 kts | 22° |
| 2026-05-03 21:44 | -40.63926 | -71.06564 | 21181 ft | 434 kts | 22° |
| 2026-05-03 21:44 | -40.61261 | -71.04561 | 21307 ft | 448 kts | 23° |